createdAt,value
2017-11-14T00:00:23.715Z,3.30
2017-11-14T00:02:52.639Z,3.20
2017-11-14T00:05:20.801Z,3.20
2017-11-14T00:07:48.950Z,3.10
2017-11-14T00:10:17.100Z,3.00
2017-11-14T00:12:45.269Z,2.90
2017-11-14T00:15:19.447Z,2.90
2017-11-14T00:17:48.438Z,2.90
2017-11-14T00:20:16.597Z,2.90
2017-11-14T00:22:44.765Z,2.90
2017-11-14T00:25:13.048Z,2.90
2017-11-14T00:27:41.225Z,2.90
2017-11-14T00:30:09.384Z,3.00
2017-11-14T00:32:37.536Z,2.90
2017-11-14T00:35:05.750Z,2.90
2017-11-14T00:37:33.944Z,3.00
2017-11-14T00:40:02.132Z,3.00
2017-11-14T00:42:30.302Z,2.90
2017-11-14T00:44:58.467Z,2.90
2017-11-14T00:47:26.625Z,2.90
2017-11-14T00:49:54.789Z,2.80
2017-11-14T00:52:22.976Z,2.70
2017-11-14T00:54:57.977Z,2.80
2017-11-14T00:57:26.990Z,2.80
2017-11-14T00:59:55.158Z,2.80
2017-11-14T01:02:23.330Z,2.90
2017-11-14T01:04:51.616Z,2.90
2017-11-14T01:07:19.770Z,3.10
2017-11-14T01:09:48.699Z,3.10
2017-11-14T01:12:16.865Z,3.10
2017-11-14T01:14:45.134Z,3.20
2017-11-14T01:17:13.960Z,3.20
2017-11-14T01:19:42.124Z,3.20
2017-11-14T01:22:10.815Z,3.20
2017-11-14T01:24:42.541Z,3.20
2017-11-14T01:27:11.511Z,3.10
2017-11-14T01:29:40.515Z,3.00
2017-11-14T01:32:09.130Z,2.90
2017-11-14T01:34:38.911Z,3.00
2017-11-14T01:37:07.083Z,3.10
2017-11-14T01:39:35.242Z,3.10
2017-11-14T01:42:03.407Z,3.10
2017-11-14T01:44:31.608Z,3.20
2017-11-14T01:46:59.781Z,3.20
2017-11-14T01:49:27.947Z,3.20
2017-11-14T01:51:56.104Z,3.30
2017-11-14T01:54:24.315Z,3.30
2017-11-14T01:56:52.472Z,3.30
2017-11-14T01:59:21.404Z,3.20
2017-11-14T02:01:49.552Z,3.20
2017-11-14T02:04:17.854Z,3.10
2017-11-14T02:06:46.028Z,3.20
2017-11-14T02:09:14.188Z,3.10
2017-11-14T02:11:42.365Z,3.20
2017-11-14T02:14:13.997Z,3.20
2017-11-14T02:16:42.296Z,3.30
2017-11-14T02:19:11.134Z,3.30
2017-11-14T02:21:39.912Z,3.30
2017-11-14T02:24:08.131Z,3.30
2017-11-14T02:26:41.966Z,3.30
2017-11-14T02:29:10.139Z,3.20
2017-11-14T02:31:38.299Z,3.10
2017-11-14T02:34:06.563Z,3.10
2017-11-14T02:36:34.713Z,3.00
2017-11-14T02:39:10.387Z,2.80
2017-11-14T02:41:38.559Z,2.80
2017-11-14T02:44:06.855Z,2.60
2017-11-14T02:46:35.022Z,2.60
2017-11-14T02:49:03.170Z,2.50
2017-11-14T02:51:31.342Z,2.20
2017-11-14T02:54:00.540Z,2.00
2017-11-14T02:56:30.226Z,1.90
2017-11-14T02:58:58.397Z,1.90
2017-11-14T03:01:26.556Z,1.90
2017-11-14T03:03:58.388Z,1.80
2017-11-14T03:06:26.663Z,1.70
2017-11-14T03:08:54.839Z,1.60
2017-11-14T03:11:22.991Z,1.70
2017-11-14T03:13:51.282Z,1.90
2017-11-14T03:16:19.451Z,2.10
2017-11-14T03:18:47.606Z,2.30
2017-11-14T03:21:15.758Z,2.40
2017-11-14T03:23:48.243Z,2.50
2017-11-14T03:26:16.551Z,2.60
2017-11-14T03:28:44.724Z,2.70
2017-11-14T03:31:12.917Z,2.80
2017-11-14T03:33:41.192Z,2.80
2017-11-14T03:36:09.368Z,2.90
2017-11-14T03:38:38.072Z,2.90
2017-11-14T03:41:06.238Z,3.00
2017-11-14T03:43:34.487Z,2.90
2017-11-14T03:46:02.657Z,2.90
2017-11-14T03:48:30.823Z,3.10
2017-11-14T03:50:58.988Z,3.10
2017-11-14T03:53:28.456Z,3.30
2017-11-14T03:55:56.619Z,3.30
2017-11-14T03:58:24.784Z,3.30
2017-11-14T04:00:52.957Z,3.40
2017-11-14T04:03:24.756Z,3.30
2017-11-14T04:05:52.900Z,3.30
2017-11-14T04:08:21.155Z,3.30
2017-11-14T04:10:49.328Z,3.30
2017-11-14T04:13:17.499Z,3.30
2017-11-14T04:15:45.704Z,3.30
2017-11-14T04:18:13.859Z,3.20
2017-11-14T04:20:42.022Z,3.20
2017-11-14T04:23:10.183Z,3.10
2017-11-14T04:25:38.351Z,3.00
2017-11-14T04:28:06.541Z,3.00
2017-11-14T04:30:34.721Z,3.10
2017-11-14T04:33:02.911Z,3.10
2017-11-14T04:35:31.074Z,3.20
2017-11-14T04:37:59.243Z,3.30
2017-11-14T04:40:27.421Z,3.30
2017-11-14T04:42:55.577Z,3.40
2017-11-14T04:45:23.722Z,3.40
2017-11-14T04:47:52.699Z,3.50
2017-11-14T04:50:20.883Z,3.50
2017-11-14T04:52:49.741Z,3.50
2017-11-14T04:55:17.917Z,3.60
2017-11-14T04:57:46.085Z,3.60
2017-11-14T05:00:14.859Z,3.60
2017-11-14T05:02:43.032Z,3.80
2017-11-14T05:05:12.331Z,3.60
2017-11-14T05:07:40.731Z,3.60
2017-11-14T05:10:09.806Z,3.70
2017-11-14T05:12:38.050Z,3.80
2017-11-14T05:15:08.807Z,3.80
2017-11-14T05:17:36.979Z,3.80
2017-11-14T05:22:38.251Z,3.70
2017-11-14T05:25:06.821Z,3.70
2017-11-14T05:27:35.020Z,3.80
2017-11-14T05:30:04.113Z,3.70
2017-11-14T05:32:32.282Z,3.50
2017-11-14T05:35:02.527Z,3.40
2017-11-14T05:37:30.725Z,3.40
2017-11-14T05:39:58.908Z,3.40
2017-11-14T05:42:27.071Z,3.40
2017-11-14T05:44:55.256Z,3.40
2017-11-14T05:47:23.418Z,3.30
2017-11-14T05:49:51.589Z,3.30
2017-11-14T05:52:19.774Z,3.40
2017-11-14T05:54:47.944Z,3.40
2017-11-14T05:57:16.108Z,3.50
2017-11-14T05:59:44.264Z,3.50
2017-11-14T06:02:13.101Z,3.50
2017-11-14T06:04:41.407Z,3.60
2017-11-14T06:07:09.552Z,3.60
2017-11-14T06:09:38.463Z,3.60
2017-11-14T06:12:06.623Z,3.60
2017-11-14T06:14:35.001Z,3.60
2017-11-14T06:17:03.922Z,3.70
2017-11-14T06:19:32.135Z,3.60
2017-11-14T06:22:00.331Z,3.70
2017-11-14T06:24:35.492Z,3.60
2017-11-14T06:27:04.414Z,3.50
2017-11-14T06:29:32.563Z,3.50
2017-11-14T06:32:00.794Z,3.50
2017-11-14T06:34:29.939Z,3.50
2017-11-14T06:36:58.108Z,3.50
2017-11-14T06:39:26.255Z,3.50
2017-11-14T06:41:54.417Z,3.50
2017-11-14T06:44:22.625Z,3.50
2017-11-14T06:46:51.526Z,3.50
2017-11-14T06:49:19.685Z,3.50
2017-11-14T06:51:47.858Z,3.40
2017-11-14T06:54:16.206Z,3.30
2017-11-14T06:56:44.365Z,3.30
2017-11-14T06:59:12.577Z,3.40
2017-11-14T07:01:40.722Z,3.30
2017-11-14T07:04:09.901Z,3.40
2017-11-14T07:06:38.067Z,3.40
2017-11-14T07:09:06.725Z,3.50
2017-11-14T07:11:34.883Z,3.50
2017-11-14T07:14:03.191Z,3.50
2017-11-14T07:16:31.356Z,3.50
2017-11-14T07:19:00.220Z,3.40
2017-11-14T07:21:29.822Z,3.50
2017-11-14T07:23:58.131Z,3.50
2017-11-14T07:26:26.297Z,3.50
2017-11-14T07:28:54.468Z,3.40
2017-11-14T07:31:23.733Z,3.40
2017-11-14T07:33:59.706Z,3.40
2017-11-14T07:36:27.870Z,3.50
2017-11-14T07:38:56.196Z,3.60
2017-11-14T07:41:24.373Z,3.60
2017-11-14T07:43:52.552Z,3.60
2017-11-14T07:46:20.717Z,3.60
2017-11-14T07:48:48.871Z,3.70
2017-11-14T07:51:17.010Z,3.80
2017-11-14T07:53:45.231Z,3.80
2017-11-14T07:56:13.389Z,3.70
2017-11-14T07:58:42.315Z,3.90
2017-11-14T08:01:10.503Z,3.80
2017-11-14T08:03:39.482Z,3.90
2017-11-14T08:06:07.638Z,3.80
2017-11-14T08:08:35.803Z,3.80
2017-11-14T08:11:03.966Z,3.80
2017-11-14T08:13:32.260Z,3.70
2017-11-14T08:16:00.428Z,3.60
2017-11-14T08:18:28.575Z,3.70
2017-11-14T08:20:56.745Z,3.80
2017-11-14T08:23:24.951Z,3.90
2017-11-14T08:25:53.134Z,4.10
2017-11-14T08:28:21.309Z,4.20
2017-11-14T08:30:49.460Z,4.20
2017-11-14T08:33:18.481Z,4.40
2017-11-14T08:35:46.650Z,4.40
2017-11-14T08:38:14.809Z,4.50
2017-11-14T08:40:43.744Z,4.40
2017-11-14T08:43:12.043Z,4.40
2017-11-14T08:45:40.206Z,4.30
2017-11-14T08:48:08.359Z,4.30
2017-11-14T08:50:36.502Z,4.10
2017-11-14T08:53:04.668Z,3.80
2017-11-14T08:55:32.839Z,3.80
2017-11-14T08:58:01.759Z,3.70
2017-11-14T09:00:30.355Z,3.70
2017-11-14T09:02:58.529Z,3.70
2017-11-14T09:05:26.697Z,3.70
2017-11-14T09:07:54.857Z,3.80
2017-11-14T09:10:23.015Z,3.80
2017-11-14T09:12:51.872Z,3.70
2017-11-14T09:15:20.046Z,3.50
2017-11-14T09:17:48.216Z,3.50
2017-11-14T09:20:16.366Z,3.50
2017-11-14T09:22:44.522Z,3.60
2017-11-14T09:25:13.443Z,3.60
2017-11-14T09:27:41.598Z,3.60
2017-11-14T09:30:10.119Z,3.60
2017-11-14T09:32:38.275Z,3.60
2017-11-14T09:35:06.453Z,3.70
2017-11-14T09:37:34.631Z,3.60
2017-11-14T09:40:02.814Z,3.60
2017-11-14T09:42:31.351Z,3.60
2017-11-14T09:44:59.525Z,3.70
2017-11-14T09:47:27.668Z,3.80
2017-11-14T09:49:56.588Z,4.20
2017-11-14T09:52:25.516Z,4.40
2017-11-14T09:54:54.696Z,4.40
2017-11-14T09:57:22.833Z,4.50
2017-11-14T09:59:51.014Z,4.60
2017-11-14T10:02:19.862Z,4.70
2017-11-14T10:04:48.016Z,4.80
2017-11-14T10:07:16.221Z,5.00
2017-11-14T10:09:44.420Z,4.90
2017-11-14T10:12:12.601Z,4.90
2017-11-14T10:14:40.897Z,4.80
2017-11-14T10:17:09.105Z,4.70
2017-11-14T10:19:37.268Z,4.70
2017-11-14T10:22:05.424Z,4.80
2017-11-14T10:24:35.644Z,4.80
2017-11-14T10:27:03.795Z,4.90
2017-11-14T10:29:32.754Z,5.10
2017-11-14T10:32:00.916Z,5.10
2017-11-14T10:34:29.144Z,5.20
2017-11-14T10:36:57.315Z,5.30
2017-11-14T10:39:25.468Z,5.50
2017-11-14T10:41:53.658Z,5.50
2017-11-14T10:44:21.830Z,5.50
2017-11-14T10:46:50.060Z,5.50
2017-11-14T10:49:18.227Z,5.50
2017-11-14T10:51:46.386Z,5.50
2017-11-14T10:54:15.550Z,5.50
2017-11-14T10:56:43.732Z,5.60
2017-11-14T10:59:11.882Z,5.60
2017-11-14T11:01:40.035Z,5.50
2017-11-14T11:04:08.347Z,5.30
2017-11-14T11:06:36.522Z,5.20
2017-11-14T11:09:04.681Z,4.90
2017-11-14T11:11:32.833Z,4.80
2017-11-14T11:14:00.983Z,4.90
2017-11-14T11:16:34.245Z,4.90
2017-11-14T11:19:02.404Z,5.00
2017-11-14T11:21:30.583Z,4.90
2017-11-14T11:23:59.589Z,5.00
2017-11-14T11:26:27.748Z,5.00
2017-11-14T11:28:55.907Z,5.20
2017-11-14T11:31:24.056Z,5.20
2017-11-14T11:33:52.692Z,5.40
2017-11-14T11:36:20.870Z,5.60
2017-11-14T11:38:49.034Z,5.80
2017-11-14T11:41:17.215Z,6.10
2017-11-14T11:43:46.611Z,6.30
2017-11-14T11:46:14.780Z,6.30
2017-11-14T11:48:42.966Z,6.50
2017-11-14T11:51:11.133Z,6.70
2017-11-14T11:53:46.131Z,6.70
2017-11-14T11:56:14.306Z,6.60
2017-11-14T11:58:42.487Z,6.30
2017-11-14T12:01:10.634Z,6.20
2017-11-14T12:03:38.793Z,6.30
2017-11-14T12:06:06.950Z,6.50
2017-11-14T12:08:35.123Z,6.50
2017-11-14T12:11:03.287Z,6.50
2017-11-14T12:13:34.500Z,6.30
2017-11-14T12:16:02.719Z,6.20
2017-11-14T12:18:30.982Z,6.30
2017-11-14T12:21:00.035Z,6.50
2017-11-14T12:23:33.901Z,6.90
2017-11-14T12:26:02.295Z,6.90
2017-11-14T12:28:30.571Z,7.10
2017-11-14T12:30:59.402Z,7.10
2017-11-14T12:33:30.081Z,6.90
2017-11-14T12:35:59.416Z,6.70
2017-11-14T12:38:28.012Z,6.60
2017-11-14T12:40:57.051Z,6.60
2017-11-14T12:43:25.342Z,6.60
2017-11-14T12:45:53.614Z,6.70
2017-11-14T12:48:21.935Z,6.80
2017-11-14T12:50:50.227Z,6.50
2017-11-14T12:53:18.513Z,6.20
2017-11-14T12:55:48.562Z,6.00
2017-11-14T12:58:16.806Z,6.00
2017-11-14T13:00:45.042Z,5.90
2017-11-14T13:03:15.177Z,5.60
2017-11-14T13:05:43.484Z,5.60
2017-11-14T13:08:11.737Z,5.60
2017-11-14T13:10:39.974Z,5.70
2017-11-14T13:13:10.418Z,5.70
2017-11-14T13:15:40.524Z,5.80
2017-11-14T13:18:08.785Z,5.90
2017-11-14T13:20:37.650Z,5.80
2017-11-14T13:23:05.832Z,5.80
2017-11-14T13:25:34.686Z,5.70
2017-11-14T13:28:02.952Z,5.70
2017-11-14T13:30:33.183Z,5.70
2017-11-14T13:33:01.440Z,5.70
2017-11-14T13:35:30.308Z,5.80
2017-11-14T13:37:58.507Z,5.80
2017-11-14T13:40:28.318Z,5.70
2017-11-14T13:42:56.523Z,5.70
2017-11-14T13:45:25.717Z,5.70
2017-11-14T13:47:55.428Z,5.30
2017-11-14T13:50:23.710Z,5.30
2017-11-14T13:52:51.952Z,5.30
2017-11-14T13:55:20.973Z,5.30
2017-11-14T13:57:49.194Z,5.30
2017-11-14T14:00:19.582Z,5.20
2017-11-14T14:02:48.592Z,5.10
2017-11-14T14:05:17.969Z,5.20
2017-11-14T14:07:46.198Z,5.10
2017-11-14T14:10:14.452Z,5.30
2017-11-14T14:12:42.722Z,5.40
2017-11-14T14:15:12.110Z,5.70
2017-11-14T14:17:40.633Z,6.10
2017-11-14T14:20:09.122Z,6.40
2017-11-14T14:22:37.742Z,6.80
2017-11-14T14:25:07.388Z,7.20
2017-11-14T14:27:36.017Z,7.20
2017-11-14T14:30:06.752Z,6.90
2017-11-14T14:32:35.659Z,6.50
2017-11-14T14:35:04.508Z,6.30
2017-11-14T14:37:33.029Z,6.10
2017-11-14T14:40:01.643Z,5.80
2017-11-14T14:42:30.072Z,5.50
2017-11-14T14:44:58.554Z,5.30
2017-11-14T14:47:27.326Z,5.10
2017-11-14T14:49:56.398Z,4.90
2017-11-14T14:52:24.646Z,4.80
2017-11-14T14:54:53.918Z,4.70
2017-11-14T14:57:23.146Z,4.70
2017-11-14T14:59:51.394Z,4.70
2017-11-14T15:02:23.136Z,4.70
2017-11-14T15:04:52.137Z,4.70
2017-11-14T15:07:20.497Z,4.60
2017-11-14T15:09:48.684Z,4.70
2017-11-14T15:12:16.839Z,4.70
2017-11-14T15:14:45.754Z,4.60
2017-11-14T15:17:17.303Z,4.60
2017-11-14T15:19:45.475Z,4.50
2017-11-14T15:22:13.650Z,4.30
2017-11-14T15:24:42.479Z,4.20
2017-11-14T15:27:10.655Z,4.00
2017-11-14T15:29:38.868Z,3.90
2017-11-14T15:32:07.016Z,3.90
2017-11-14T15:34:35.512Z,3.80
2017-11-14T15:37:04.665Z,3.60
2017-11-14T15:39:32.831Z,3.40
2017-11-14T15:42:01.842Z,3.30
2017-11-14T15:44:30.084Z,3.10
2017-11-14T15:46:58.338Z,3.10
2017-11-14T15:49:26.551Z,3.00
2017-11-14T15:51:54.719Z,3.00
2017-11-14T15:54:22.955Z,3.00
2017-11-14T15:56:51.120Z,2.90
2017-11-14T15:59:20.063Z,2.80
2017-11-14T16:01:48.210Z,2.80
2017-11-14T16:04:16.454Z,2.80
2017-11-14T16:06:45.925Z,2.70
2017-11-14T16:09:14.112Z,2.80
2017-11-14T16:11:42.260Z,2.70
2017-11-14T16:17:07.307Z,2.90
2017-11-14T16:19:35.441Z,2.90
2017-11-14T16:22:03.599Z,2.80
2017-11-14T16:24:31.779Z,2.70
2017-11-14T16:26:59.945Z,2.50
2017-11-14T16:29:32.767Z,2.40
2017-11-14T16:32:00.939Z,2.20
2017-11-14T16:34:29.202Z,1.90
2017-11-14T16:36:58.061Z,1.80
2017-11-14T16:39:26.227Z,1.80
2017-11-14T16:41:55.891Z,1.80
2017-11-14T16:44:24.126Z,1.80
2017-11-14T16:46:52.372Z,1.80
2017-11-14T16:49:21.422Z,1.80
2017-11-14T16:51:49.571Z,1.80
2017-11-14T16:54:17.833Z,1.90
2017-11-14T16:56:46.045Z,1.90
2017-11-14T16:59:14.234Z,1.90
2017-11-14T17:01:42.428Z,1.90
2017-11-14T17:04:12.598Z,1.80
2017-11-14T17:06:40.753Z,1.60
2017-11-14T17:09:08.973Z,1.40
2017-11-14T17:11:37.116Z,1.30
2017-11-14T17:14:05.262Z,1.10
2017-11-14T17:16:33.414Z,0.90
2017-11-14T17:19:01.567Z,1.00
2017-11-14T17:21:29.727Z,0.80
2017-11-14T17:23:57.973Z,0.90
2017-11-14T17:26:26.466Z,0.90
2017-11-14T17:28:54.665Z,0.90
2017-11-14T17:31:22.862Z,1.00
2017-11-14T17:33:52.118Z,1.10
2017-11-14T17:36:20.268Z,1.10
2017-11-14T17:38:57.059Z,1.10
2017-11-14T17:41:25.247Z,1.00
2017-11-14T17:43:54.327Z,1.00
2017-11-14T17:46:22.504Z,0.90
2017-11-14T17:48:50.905Z,0.80
2017-11-14T17:51:19.252Z,0.70
2017-11-14T17:53:48.033Z,0.70
2017-11-14T17:56:17.663Z,0.60
2017-11-14T17:58:47.988Z,0.60
2017-11-14T18:01:16.126Z,0.60
2017-11-14T18:03:44.821Z,0.60
2017-11-14T18:06:13.023Z,0.50
2017-11-14T18:08:41.648Z,0.60
2017-11-14T18:11:11.064Z,0.60
2017-11-14T18:13:39.943Z,0.70
2017-11-14T18:16:10.560Z,0.80
2017-11-14T18:18:39.334Z,0.90
2017-11-14T18:21:07.755Z,1.00
2017-11-14T18:23:36.152Z,1.10
2017-11-14T18:26:04.310Z,1.10
2017-11-14T18:28:32.465Z,0.90
2017-11-14T18:31:02.015Z,0.90
2017-11-14T18:33:31.078Z,0.80
2017-11-14T18:36:02.485Z,0.80
2017-11-14T18:38:30.664Z,0.70
2017-11-14T18:41:00.513Z,0.80
2017-11-14T18:43:30.884Z,0.80
2017-11-14T18:46:00.265Z,0.80
2017-11-14T18:48:29.192Z,0.90
2017-11-14T18:50:58.680Z,0.90
2017-11-14T18:53:26.873Z,0.90
2017-11-14T18:55:55.080Z,1.00
2017-11-14T18:58:23.308Z,0.90
2017-11-14T19:00:52.584Z,0.80
2017-11-14T19:03:20.771Z,0.70
2017-11-14T19:05:49.527Z,0.50
2017-11-14T19:08:18.591Z,0.50
2017-11-14T19:10:48.153Z,0.50
2017-11-14T19:13:17.634Z,0.40
2017-11-14T19:15:47.668Z,0.40
2017-11-14T19:18:15.858Z,0.30
2017-11-14T19:20:45.347Z,0.30
2017-11-14T19:23:14.857Z,0.30
2017-11-14T19:25:43.330Z,0.20
2017-11-14T19:28:12.265Z,0.30
2017-11-14T19:30:41.373Z,0.30
2017-11-14T19:33:09.553Z,0.40
2017-11-14T19:35:37.884Z,0.40
2017-11-14T19:38:06.133Z,0.40
2017-11-14T19:40:34.511Z,0.50
2017-11-14T19:43:03.761Z,0.60
2017-11-14T19:45:31.966Z,0.50
2017-11-14T19:48:00.223Z,0.50
2017-11-14T19:50:29.233Z,0.40
2017-11-14T19:52:57.510Z,0.30
2017-11-14T19:55:25.785Z,0.40
2017-11-14T19:57:54.077Z,0.40
2017-11-14T20:00:22.520Z,0.30
2017-11-14T20:02:51.260Z,0.30
2017-11-14T20:05:20.924Z,0.20
2017-11-14T20:07:49.610Z,0.30
2017-11-14T20:10:18.015Z,0.30
2017-11-14T20:12:46.421Z,0.30
2017-11-14T20:15:15.208Z,0.20
2017-11-14T20:17:43.746Z,0.20
2017-11-14T20:20:12.262Z,0.20
2017-11-14T20:22:40.717Z,0.20
2017-11-14T20:25:12.885Z,0.10
2017-11-14T20:27:41.801Z,0.20
2017-11-14T20:30:10.654Z,0.20
2017-11-14T20:32:39.188Z,0.10
2017-11-14T20:35:07.720Z,0.10
2017-11-14T20:37:36.294Z,0.00
2017-11-14T20:40:04.808Z,-0.10
2017-11-14T20:42:34.250Z,-0.10
2017-11-14T20:45:02.746Z,-0.10
2017-11-14T20:47:33.758Z,-0.10
2017-11-14T20:50:02.246Z,-0.10
2017-11-14T20:52:30.844Z,-0.10
2017-11-14T20:55:01.160Z,0.00
2017-11-14T20:57:29.612Z,0.00
2017-11-14T20:59:58.696Z,0.10
2017-11-14T21:02:27.739Z,0.10
2017-11-14T21:04:56.037Z,0.20
2017-11-14T21:07:24.797Z,0.20
2017-11-14T21:09:53.679Z,0.10
2017-11-14T21:12:22.619Z,0.00
2017-11-14T21:14:51.874Z,0.00
2017-11-14T21:17:23.292Z,0.00
2017-11-14T21:19:51.479Z,-0.10
2017-11-14T21:22:19.676Z,-0.10
2017-11-14T21:24:48.853Z,-0.10
2017-11-14T21:27:17.235Z,-0.10
2017-11-14T21:29:45.396Z,-0.20
2017-11-14T21:32:13.605Z,-0.40
2017-11-14T21:34:42.726Z,-0.40
2017-11-14T21:37:11.019Z,-0.40
2017-11-14T21:39:39.183Z,-0.20
2017-11-14T21:42:07.357Z,-0.20
2017-11-14T21:44:35.633Z,-0.30
2017-11-14T21:47:03.813Z,-0.30
2017-11-14T21:49:32.226Z,-0.30
2017-11-14T21:52:00.443Z,-0.20
2017-11-14T21:54:29.488Z,-0.20
2017-11-14T21:56:57.667Z,-0.20
2017-11-14T21:59:25.836Z,-0.20
2017-11-14T22:01:54.938Z,-0.30
2017-11-14T22:04:24.253Z,-0.30
2017-11-14T22:06:52.888Z,-0.40
2017-11-14T22:09:21.249Z,-0.40
2017-11-14T22:11:50.766Z,-0.40
2017-11-14T22:14:19.079Z,-0.40
2017-11-14T22:16:47.754Z,-0.40
2017-11-14T22:19:15.931Z,-0.40
2017-11-14T22:21:46.128Z,-0.40
2017-11-14T22:24:14.405Z,-0.30
2017-11-14T22:26:43.278Z,-0.30
2017-11-14T22:29:11.504Z,-0.20
2017-11-14T22:31:39.662Z,-0.30
2017-11-14T22:34:07.971Z,-0.30
2017-11-14T22:36:36.823Z,-0.30
2017-11-14T22:39:04.989Z,-0.30
2017-11-14T22:41:34.976Z,-0.30
2017-11-14T22:44:03.535Z,-0.30
2017-11-14T22:46:36.759Z,-0.30
2017-11-14T22:49:05.321Z,-0.30
2017-11-14T22:51:36.983Z,-0.30
2017-11-14T22:54:08.943Z,-0.30
2017-11-14T22:56:38.694Z,-0.20
2017-11-14T22:59:06.851Z,-0.20
2017-11-14T23:01:35.150Z,-0.20
2017-11-14T23:04:03.426Z,-0.10
2017-11-14T23:06:31.585Z,0.00
2017-11-14T23:09:00.523Z,0.00
2017-11-14T23:11:28.680Z,0.10
2017-11-14T23:13:56.917Z,0.20
2017-11-14T23:16:25.626Z,0.30
2017-11-14T23:18:53.793Z,0.30
2017-11-14T23:21:21.945Z,0.40
2017-11-14T23:23:50.222Z,0.50
2017-11-14T23:26:18.745Z,0.50
2017-11-14T23:28:46.911Z,0.50
2017-11-14T23:31:15.070Z,0.50
2017-11-14T23:33:44.366Z,0.60
2017-11-14T23:36:12.532Z,0.60
2017-11-14T23:38:40.747Z,0.60
2017-11-14T23:41:08.947Z,0.60
2017-11-14T23:43:38.727Z,0.70
2017-11-14T23:46:06.983Z,0.70
2017-11-14T23:48:35.140Z,0.70
2017-11-14T23:51:03.313Z,0.80
2017-11-14T23:53:31.592Z,0.80
2017-11-14T23:56:00.756Z,0.70
2017-11-14T23:58:28.911Z,0.70
